Time;durP1;ratioP1;P1;durP2;ratioP2;P2;SDS_P1;SDS_P2;PMS_P1;PMS_P2;Temp;Humidity;BMP_temperature;BMP_pressure;BME280_temperature;BME280_humidity;BME280_pressure;Samples;Min_cycle;Max_cycle;Signal;HPM_P1;HPM_P2
2022/03/30 00:00:06;;;;;;;15.57;4.82;;;;;;;-2.74;76.50;98243.75;6036013;23;20050;-64
2022/03/30 00:02:37;;;;;;;13.90;5.13;;;;;;;-2.76;75.68;98236.88;6035758;23;20066;-64
2022/03/30 00:05:04;;;;;;;12.43;4.30;;;;;;;-2.81;75.12;98237.19;5941002;23;20034;-63
2022/03/30 00:07:31;;;;;;;11.27;4.15;;;;;;;-2.80;73.73;98228.28;6010679;23;20166;-67
2022/03/30 00:10:02;;;;;;;11.15;4.43;;;;;;;-2.67;75.09;98239.75;6010487;23;20325;-63
2022/03/30 00:12:29;;;;;;;10.45;4.45;;;;;;;-2.71;73.93;98240.88;6010790;23;20165;-65
2022/03/30 00:14:54;;;;;;;10.75;4.35;;;;;;;-2.80;74.21;98244.16;6010755;23;20023;-64
2022/03/30 00:17:21;;;;;;;11.55;4.50;;;;;;;-2.89;74.54;98244.75;5986422;23;20075;-63
2022/03/30 00:19:47;;;;;;;12.68;4.38;;;;;;;-3.02;74.23;98225.38;6011111;23;20098;-64
2022/03/30 00:22:13;;;;;;;10.32;4.35;;;;;;;-2.84;75.25;98253.25;6010933;23;20023;-64
2022/03/30 00:24:39;;;;;;;13.43;4.82;;;;;;;-2.80;74.33;98256.53;6010560;23;20391;-64
2022/03/30 00:27:06;;;;;;;12.88;5.25;;;;;;;-2.79;74.06;98253.78;5964008;23;20078;-65
2022/03/30 00:29:33;;;;;;;14.38;5.13;;;;;;;-2.84;74.19;98255.06;5987278;23;20118;-64
2022/03/30 00:31:58;;;;;;;12.15;4.80;;;;;;;-2.86;74.86;98239.25;5941394;23;20027;-64
2022/03/30 00:34:24;;;;;;;12.18;5.65;;;;;;;-2.88;75.67;98254.41;6036745;23;20027;-65
2022/03/30 00:36:50;;;;;;;11.27;4.55;;;;;;;-2.80;75.14;98260.03;6010558;23;20034;-63
2022/03/30 00:39:18;;;;;;;11.70;4.32;;;;;;;-2.74;75.26;98258.78;6035669;23;20545;-65
2022/03/30 00:41:45;;;;;;;11.27;4.57;;;;;;;-2.78;74.67;98267.84;6011478;23;20027;-64
2022/03/30 00:44:12;;;;;;;10.80;3.90;;;;;;;-2.73;73.52;98263.13;6010534;23;20054;-65
2022/03/30 00:46:38;;;;;;;10.65;4.45;;;;;;;-2.74;74.19;98264.91;6034135;23;20032;-64
2022/03/30 00:49:05;;;;;;;13.48;4.78;;;;;;;-2.74;73.79;98264.06;6010629;23;20102;-64
2022/03/30 00:51:32;;;;;;;12.50;5.00;;;;;;;-2.86;74.42;98265.72;5986859;23;20058;-64
2022/03/30 00:53:58;;;;;;;10.48;3.90;;;;;;;-2.84;74.58;98263.81;5987386;23;20098;-63
2022/03/30 00:56:24;;;;;;;11.77;5.07;;;;;;;-2.90;75.28;98261.56;6034407;23;20133;-64
2022/03/30 00:58:50;;;;;;;10.70;4.72;;;;;;;-2.89;74.74;98271.19;5987490;23;20453;-63
2022/03/30 01:01:16;;;;;;;11.07;4.40;;;;;;;-2.83;75.61;98270.78;5986531;23;20082;-64
2022/03/30 01:03:42;;;;;;;10.82;4.40;;;;;;;-2.79;75.58;98277.56;6010945;23;20035;-64
2022/03/30 01:06:08;;;;;;;13.43;4.80;;;;;;;-2.88;75.83;98278.19;6011083;23;20034;-62
2022/03/30 01:08:33;;;;;;;12.77;4.43;;;;;;;-2.86;74.99;98276.28;6036138;23;20126;-63
2022/03/30 01:11:00;;;;;;;13.23;4.95;;;;;;;-2.80;74.13;98286.47;6034506;23;20031;-62
2022/03/30 01:13:26;;;;;;;10.57;4.22;;;;;;;-2.83;74.15;98278.72;6010639;23;20366;-70
2022/03/30 01:15:52;;;;;;;9.63;3.80;;;;;;;-2.87;73.76;98284.34;6035674;23;20023;-64
2022/03/30 01:18:18;;;;;;;12.60;3.28;;;;;;;-2.92;74.70;98285.47;6027436;23;20465;-63
2022/03/30 01:20:49;;;;;;;11.68;3.40;;;;;;;-2.94;74.48;98294.47;6038411;23;20030;-64
2022/03/30 01:23:16;;;;;;;11.00;3.65;;;;;;;-2.91;75.09;98294.25;6015125;23;20031;-64
2022/03/30 01:25:41;;;;;;;12.13;3.92;;;;;;;-3.09;73.84;98276.97;6015263;23;20159;-64
2022/03/30 01:28:07;;;;;;;9.20;3.53;;;;;;;-3.15;74.78;98264.97;6038829;23;20034;-63
2022/03/30 01:33:18;;;;;;;10.25;3.63;;;;;;;-3.06;75.19;98301.41;6039583;23;20106;-64
2022/03/30 01:35:44;;;;;;;9.55;3.60;;;;;;;-3.01;75.07;98306.38;6063530;23;20027;-63
2022/03/30 01:38:10;;;;;;;11.07;3.85;;;;;;;-3.19;75.49;98280.19;6039091;23;20031;-63
2022/03/30 01:40:36;;;;;;;13.68;3.95;;;;;;;-3.01;74.18;98303.72;6038626;23;20030;-66
2022/03/30 01:43:02;;;;;;;11.50;4.25;;;;;;;-3.10;74.37;98299.91;6039144;23;20079;-65
2022/03/30 01:45:28;;;;;;;9.88;3.95;;;;;;;-3.09;74.39;98295.47;6040107;23;20209;-65
2022/03/30 01:47:57;;;;;;;10.90;3.83;;;;;;;-3.15;74.48;98301.97;6017440;23;20070;-64
2022/03/30 01:50:25;;;;;;;10.13;3.95;;;;;;;-3.25;74.92;98295.63;6066679;23;20026;-64
2022/03/30 01:52:51;;;;;;;11.98;4.20;;;;;;;-3.30;74.92;98309.09;6066778;23;20089;-64
2022/03/30 01:55:17;;;;;;;12.60;3.92;;;;;;;-3.18;75.88;98310.09;6064205;23;20484;-64
2022/03/30 01:57:44;;;;;;;9.13;3.33;;;;;;;-3.29;75.96;98318.75;6016820;23;20053;-65
2022/03/30 02:00:12;;;;;;;11.65;3.85;;;;;;;-3.36;77.03;98312.16;6016157;23;20102;-65
2022/03/30 02:02:40;;;;;;;16.52;4.60;;;;;;;-3.25;77.12;98317.59;6040725;23;20335;-64
2022/03/30 02:05:08;;;;;;;11.90;4.05;;;;;;;-3.33;76.89;98319.00;6040314;23;20023;-64
2022/03/30 02:07:36;;;;;;;14.85;4.75;;;;;;;-3.31;77.27;98323.25;6040209;23;20101;-66
2022/03/30 02:10:03;;;;;;;11.60;5.00;;;;;;;-3.28;76.53;98323.06;6016382;23;20026;-64
2022/03/30 02:12:29;;;;;;;12.98;4.72;;;;;;;-3.29;77.00;98316.09;6016622;23;20094;-65
2022/03/30 02:14:55;;;;;;;13.35;4.10;;;;;;;-3.51;76.32;98299.88;6017285;23;20106;-64
2022/03/30 02:17:23;;;;;;;11.02;4.20;;;;;;;-3.51;76.60;98326.28;6040670;23;20390;-64
2022/03/30 02:19:50;;;;;;;11.88;4.70;;;;;;;-3.59;77.62;98323.28;6015116;23;20023;-64
2022/03/30 02:22:15;;;;;;;10.88;4.22;;;;;;;-3.68;76.38;98330.00;6038370;23;20433;-64
2022/03/30 02:24:41;;;;;;;11.18;4.85;;;;;;;-3.76;76.92;98343.69;6037885;23;20476;-63
2022/03/30 02:27:07;;;;;;;14.13;4.82;;;;;;;-3.80;76.34;98350.09;6062780;23;20022;-62
2022/03/30 02:29:34;;;;;;;11.30;3.75;;;;;;;-3.76;76.38;98346.31;6062289;23;20031;-64
2022/03/30 02:32:01;;;;;;;11.43;4.07;;;;;;;-3.71;76.29;98349.53;6050640;23;20054;-64
2022/03/30 02:34:27;;;;;;;11.98;4.32;;;;;;;-3.82;76.06;98349.31;6036705;23;20121;-65
2022/03/30 02:36:53;;;;;;;10.38;3.92;;;;;;;-3.86;76.76;98350.47;6013114;23;20059;-64
2022/03/30 02:39:19;;;;;;;10.90;4.30;;;;;;;-3.81;76.79;98358.94;6062746;23;20090;-64
2022/03/30 02:41:46;;;;;;;10.60;4.00;;;;;;;-3.78;76.92;98361.41;6036390;23;20098;-64
2022/03/30 02:44:13;;;;;;;15.23;4.55;;;;;;;-3.85;77.16;98354.78;6013449;23;20413;-62
2022/03/30 02:46:40;;;;;;;11.20;4.15;;;;;;;-3.78;77.28;98365.84;6013432;23;20023;-64
2022/03/30 02:49:06;;;;;;;11.13;4.55;;;;;;;-3.86;76.77;98366.31;6012684;23;20059;-64
2022/03/30 02:51:32;;;;;;;10.65;3.60;;;;;;;-3.76;77.20;98380.66;6062211;23;20033;-62
2022/03/30 02:53:57;;;;;;;10.13;3.80;;;;;;;-3.76;77.20;98385.94;6013838;23;20105;-65
2022/03/30 02:56:23;;;;;;;8.73;3.13;;;;;;;-3.75;76.58;98382.34;6036520;23;20030;-65
2022/03/30 02:58:49;;;;;;;11.50;4.20;;;;;;;-3.75;77.04;98390.25;6013644;23;20333;-64
2022/03/30 03:01:15;;;;;;;10.38;4.28;;;;;;;-3.76;76.69;98391.22;6060716;23;20388;-64
2022/03/30 03:03:41;;;;;;;13.15;4.55;;;;;;;-3.95;76.84;98390.59;6013608;23;20015;-65
2022/03/30 03:06:07;;;;;;;9.40;3.88;;;;;;;-3.89;76.87;98398.16;6036269;23;20023;-64
2022/03/30 03:08:33;;;;;;;13.15;3.63;;;;;;;-3.81;77.24;98406.47;6010895;23;20107;-64
2022/03/30 03:10:58;;;;;;;11.07;4.15;;;;;;;-4.17;76.59;98370.78;6014171;23;20361;-63
2022/03/30 03:13:25;;;;;;;11.27;3.78;;;;;;;-3.97;75.40;98405.69;6063825;23;20460;-65
2022/03/30 03:15:51;;;;;;;9.30;3.78;;;;;;;-3.88;75.87;98413.06;6036437;23;20118;-64
2022/03/30 03:18:18;;;;;;;8.05;3.03;;;;;;;-3.92;72.95;98417.66;5961368;23;1428647;-64
2022/03/30 03:20:45;;;;;;;7.97;2.80;;;;;;;-3.94;71.90;98418.72;5988015;23;20124;-64
2022/03/30 03:23:12;;;;;;;7.70;2.78;;;;;;;-3.93;72.85;98417.75;6037126;23;20138;-64
2022/03/30 03:25:40;;;;;;;9.52;3.30;;;;;;;-3.89;72.96;98432.47;6012183;23;20310;-65
2022/03/30 03:28:07;;;;;;;7.00;2.30;;;;;;;-4.02;72.74;98437.66;6011352;23;20026;-64
2022/03/30 03:30:33;;;;;;;8.43;2.88;;;;;;;-3.97;72.63;98440.00;5965149;23;20114;-64
2022/03/30 03:32:59;;;;;;;8.48;3.00;;;;;;;-3.95;72.52;98438.09;5988169;23;20023;-65
2022/03/30 03:35:26;;;;;;;9.23;3.55;;;;;;;-3.90;72.51;98447.47;6010581;23;20019;-65
2022/03/30 03:37:52;;;;;;;10.70;3.80;;;;;;;-3.97;72.40;98455.84;5986916;23;20457;-64
2022/03/30 03:40:18;;;;;;;9.95;3.15;;;;;;;-3.84;72.06;98451.53;5964265;23;20033;-65
2022/03/30 03:42:44;;;;;;;9.88;3.35;;;;;;;-3.82;71.46;98454.94;5987257;23;20462;-63
2022/03/30 03:45:11;;;;;;;8.93;3.20;;;;;;;-3.81;70.09;98451.34;5963933;23;20034;-64
2022/03/30 03:47:37;;;;;;;9.27;2.70;;;;;;;-3.91;69.68;98429.94;5987589;23;20118;-64
2022/03/30 03:50:03;;;;;;;9.25;2.78;;;;;;;-3.88;69.83;98439.44;6011309;23;20035;-64
2022/03/30 03:52:29;;;;;;;11.55;2.97;;;;;;;-3.94;70.07;98434.56;6010823;23;20027;-66
2022/03/30 03:54:55;;;;;;;11.32;3.20;;;;;;;-3.83;69.53;98460.31;6011263;23;20026;-63
2022/03/30 03:57:21;;;;;;;7.28;2.45;;;;;;;-3.96;70.11;98441.69;5987219;23;20379;-65
2022/03/30 03:59:46;;;;;;;10.55;3.30;;;;;;;-3.94;70.15;98445.13;6010997;23;20434;-64
2022/03/30 04:02:12;;;;;;;8.93;2.90;;;;;;;-3.72;69.35;98471.94;6010722;23;20437;-65
2022/03/30 04:04:38;;;;;;;8.90;3.47;;;;;;;-3.75;68.55;98477.41;5987517;23;20030;-65
2022/03/30 04:07:04;;;;;;;9.35;3.00;;;;;;;-3.77;68.40;98481.91;5987625;23;20071;-65
2022/03/30 04:09:30;;;;;;;7.40;2.58;;;;;;;-3.96;68.46;98462.81;6009917;23;20027;-65
2022/03/30 04:11:57;;;;;;;9.82;2.83;;;;;;;-3.72;68.37;98498.34;6010072;23;20031;-65
2022/03/30 04:14:23;;;;;;;10.32;3.30;;;;;;;-3.74;67.67;98491.44;6008819;23;20466;-67
2022/03/30 04:16:49;;;;;;;8.57;3.00;;;;;;;-3.65;66.38;98491.75;5961847;23;20387;-64
2022/03/30 04:19:15;;;;;;;9.43;3.13;;;;;;;-3.56;66.34;98497.44;6013316;23;20069;-64
2022/03/30 04:21:42;;;;;;;6.50;2.25;;;;;;;-3.47;66.92;98491.59;6037759;23;20429;-66
2022/03/30 04:24:09;;;;;;;9.10;3.50;;;;;;;-3.49;65.72;98493.47;6012630;23;20148;-66
2022/03/30 04:26:35;;;;;;;8.15;2.92;;;;;;;-3.29;66.69;98514.28;5989564;23;20038;-65
2022/03/30 04:29:01;;;;;;;10.63;3.45;;;;;;;-3.30;65.97;98509.06;5989372;23;20471;-69
2022/03/30 04:31:27;;;;;;;11.70;3.90;;;;;;;-3.19;65.86;98512.75;5990279;23;20051;-61
2022/03/30 04:33:53;;;;;;;9.98;3.40;;;;;;;-3.16;66.57;98502.00;5988609;23;20030;-67
2022/03/30 04:36:20;;;;;;;10.20;3.88;;;;;;;-3.07;65.95;98507.66;6014848;23;20349;-67
2022/03/30 04:38:46;;;;;;;11.35;2.90;;;;;;;-3.13;66.03;98515.97;6015139;23;20022;-65
2022/03/30 04:41:12;;;;;;;11.73;3.70;;;;;;;-3.27;65.95;98509.72;5992538;23;20460;-66
2022/03/30 04:43:38;;;;;;;9.50;3.20;;;;;;;-3.35;66.29;98498.78;6014943;23;20042;-65
2022/03/30 04:46:06;;;;;;;8.60;3.42;;;;;;;-3.25;66.29;98521.06;6039269;23;20078;-65
2022/03/30 04:48:33;;;;;;;10.93;4.35;;;;;;;-3.54;67.91;98520.16;5991944;23;20469;-66
2022/03/30 04:50:59;;;;;;;12.00;4.35;;;;;;;-3.89;67.55;98501.13;6039030;23;20023;-65
2022/03/30 04:53:25;;;;;;;11.13;3.95;;;;;;;-3.61;68.02;98525.91;6038262;23;20056;-66
2022/03/30 04:55:51;;;;;;;11.23;4.13;;;;;;;-3.38;68.72;98511.31;6014274;23;20022;-65
2022/03/30 04:58:17;;;;;;;7.57;2.95;;;;;;;-3.21;68.29;98540.22;6014848;23;20103;-65
2022/03/30 05:00:43;;;;;;;13.35;4.00;;;;;;;-3.23;68.85;98536.81;6014903;23;20026;-66
2022/03/30 05:03:09;;;;;;;11.55;4.80;;;;;;;-3.09;67.61;98543.91;6038413;23;20027;-66
2022/03/30 05:05:35;;;;;;;10.18;4.25;;;;;;;-3.11;67.02;98543.16;5990867;23;20132;-66
2022/03/30 05:08:01;;;;;;;10.52;3.95;;;;;;;-3.02;67.64;98561.09;6014586;23;20458;-66
2022/03/30 05:10:28;;;;;;;13.45;3.83;;;;;;;-3.06;67.62;98556.97;6014448;23;20066;-66
2022/03/30 05:12:55;;;;;;;10.10;4.07;;;;;;;-3.01;68.13;98568.09;6039038;23;20031;-66
2022/03/30 05:15:23;;;;;;;9.77;3.22;;;;;;;-2.76;67.76;98557.72;5991181;23;20030;-65
2022/03/30 05:17:49;;;;;;;11.75;3.95;;;;;;;-2.93;67.66;98565.81;6038144;23;20045;-66
2022/03/30 05:20:16;;;;;;;10.38;3.75;;;;;;;-3.01;67.95;98570.72;6015132;23;20019;-66
2022/03/30 05:22:43;;;;;;;10.95;3.72;;;;;;;-2.82;67.24;98578.38;6017089;23;20466;-66
2022/03/30 05:25:11;;;;;;;8.82;3.13;;;;;;;-2.96;67.04;98576.63;6040587;23;20098;-66
2022/03/30 05:27:41;;;;;;;12.60;3.72;;;;;;;-2.69;66.86;98577.53;6017274;23;20094;-66
2022/03/30 05:30:08;;;;;;;11.10;3.70;;;;;;;-2.65;67.17;98574.72;6016813;23;20090;-65
2022/03/30 05:32:35;;;;;;;9.70;3.42;;;;;;;-2.50;66.18;98592.28;6040291;23;20106;-65
2022/03/30 05:35:03;;;;;;;10.85;3.92;;;;;;;-2.45;64.42;98590.19;5970206;23;20132;-66
2022/03/30 05:37:30;;;;;;;12.60;4.00;;;;;;;-2.19;65.01;98589.41;6016051;23;20030;-65
2022/03/30 05:39:56;;;;;;;11.40;3.63;;;;;;;-2.58;65.13;98591.91;5993043;23;20369;-66
2022/03/30 05:42:22;;;;;;;9.82;3.45;;;;;;;-2.69;63.40;98587.28;6016219;23;20027;-66
2022/03/30 05:44:52;;;;;;;8.05;3.25;;;;;;;-1.49;61.92;98569.88;5993192;23;20168;-66
2022/03/30 05:47:17;;;;;;;7.93;2.97;;;;;;;-0.31;55.44;98599.72;6039603;23;20411;-66
2022/03/30 05:49:44;;;;;;;8.63;3.22;;;;;;;0.65;52.49;98588.31;5993399;23;20102;-65
2022/03/30 05:52:10;;;;;;;8.88;2.88;;;;;;;2.42;48.68;98600.13;6039881;23;20422;-68
2022/03/30 05:54:37;;;;;;;10.25;3.35;;;;;;;2.81;47.01;98595.13;5993373;23;20027;-67
2022/03/30 05:57:05;;;;;;;13.43;4.55;;;;;;;3.17;45.84;98601.00;6063902;23;20022;-67
2022/03/30 05:59:34;;;;;;;9.45;2.95;;;;;;;1.40;48.68;98601.19;6016639;23;20046;-66
2022/03/30 06:02:00;;;;;;;7.97;3.30;;;;;;;1.52;49.67;98615.38;6016315;23;20090;-67
2022/03/30 06:04:26;;;;;;;8.38;2.95;;;;;;;3.33;45.22;98606.75;6039747;23;20078;-67
2022/03/30 06:06:52;;;;;;;8.85;3.70;;;;;;;4.00;42.75;98606.22;6064299;23;20034;-67
2022/03/30 06:09:19;;;;;;;9.35;3.42;;;;;;;4.78;41.00;98603.69;5993526;23;20053;-67
2022/03/30 06:11:46;;;;;;;20.70;3.88;;;;;;;4.61;41.95;98615.94;6064319;23;20031;-65
2022/03/30 06:14:14;;;;;;;7.82;2.42;;;;;;;3.75;41.10;98617.38;6039871;23;20378;-66
2022/03/30 06:16:41;;;;;;;7.15;2.72;;;;;;;2.81;43.94;98597.78;5993266;23;20205;-66
2022/03/30 06:19:08;;;;;;;7.72;2.55;;;;;;;2.12;45.70;98615.00;5970355;23;20033;-66
2022/03/30 06:21:34;;;;;;;7.93;2.90;;;;;;;3.05;44.27;98619.75;6018256;23;20022;-66
2022/03/30 06:24:01;;;;;;;7.32;3.05;;;;;;;4.33;40.91;98617.56;6017167;23;20113;-67
2022/03/30 06:26:27;;;;;;;8.90;3.47;;;;;;;4.95;39.68;98626.25;6017356;23;20219;-65
2022/03/30 06:28:54;;;;;;;16.42;3.25;;;;;;;5.52;38.03;98617.31;6016505;23;20076;-66
2022/03/30 06:31:19;;;;;;;9.95;3.30;;;;;;;6.09;37.85;98622.63;6016009;23;20030;-67
2022/03/30 06:33:46;;;;;;;9.65;3.35;;;;;;;6.76;36.46;98633.97;6039850;23;20026;-66
2022/03/30 06:36:12;;;;;;;8.63;2.97;;;;;;;4.08;39.88;98635.78;6065760;23;20027;-67
2022/03/30 06:38:39;;;;;;;10.75;3.03;;;;;;;3.09;41.29;98642.56;6016719;23;20031;-67
2022/03/30 06:41:07;;;;;;;17.50;2.70;;;;;;;2.27;40.75;98644.06;5993362;23;20114;-67
2022/03/30 06:43:36;;;;;;;8.70;3.15;;;;;;;3.44;40.18;98652.09;6017061;23;20031;-67
2022/03/30 06:46:02;;;;;;;8.13;3.22;;;;;;;4.67;39.53;98663.56;6016233;23;20420;-66
2022/03/30 06:48:30;;;;;;;12.30;3.15;;;;;;;3.10;40.83;98614.88;6039778;23;20175;-67
2022/03/30 06:50:59;;;;;;;8.40;3.20;;;;;;;2.70;42.39;98624.53;6016264;23;20392;-67
2022/03/30 06:53:25;;;;;;;6.55;2.30;;;;;;;3.68;39.58;98669.66;5992967;23;20114;-69
2022/03/30 06:55:52;;;;;;;9.15;3.65;;;;;;;4.01;40.09;98665.88;6016239;23;20465;-69
2022/03/30 06:58:18;;;;;;;7.13;2.50;;;;;;;3.62;39.59;98655.84;5992867;23;20030;-66
2022/03/30 07:00:44;;;;;;;9.07;2.70;;;;;;;3.60;39.68;98679.19;6016199;23;20054;-67
2022/03/30 07:03:10;;;;;;;8.05;2.55;;;;;;;2.16;41.83;98672.44;5993211;23;20101;-67
2022/03/30 07:05:38;;;;;;;8.27;2.92;;;;;;;2.61;42.62;98679.50;6016164;23;20095;-67
2022/03/30 07:10:48;;;;;;;7.40;2.60;;;;;;;2.15;41.83;98673.38;6020449;23;20030;-66
2022/03/30 07:13:14;;;;;;;7.03;2.50;;;;;;;1.19;43.09;98683.56;6016345;23;20030;-66
2022/03/30 07:15:41;;;;;;;8.55;2.50;;;;;;;0.99;45.32;98687.72;6040001;23;20253;-67
2022/03/30 07:18:08;;;;;;;7.50;2.78;;;;;;;1.05;45.93;98686.41;6016329;23;20103;-66
2022/03/30 07:20:35;;;;;;;6.85;2.55;;;;;;;1.65;43.67;98686.22;6039671;23;20454;-65
2022/03/30 07:23:01;;;;;;;10.35;3.03;;;;;;;2.07;43.11;98691.81;5992888;23;20023;-67
2022/03/30 07:25:28;;;;;;;8.65;3.22;;;;;;;3.87;40.92;98675.09;6063886;23;20461;-68
2022/03/30 07:27:58;;;;;;;9.65;2.95;;;;;;;5.11;39.06;98698.84;6040337;23;20101;-67
2022/03/30 07:30:25;;;;;;;9.35;2.90;;;;;;;7.11;34.34;98691.44;6039971;23;20030;-67
2022/03/30 07:32:52;;;;;;;8.32;2.70;;;;;;;6.24;35.01;98692.75;6016023;23;20065;-66
2022/03/30 07:35:21;;;;;;;8.43;2.70;;;;;;;5.22;36.49;98689.81;6039798;23;20019;-68
2022/03/30 07:37:47;;;;;;;10.75;2.47;;;;;;;5.87;35.47;98701.59;6063859;23;20031;-66
2022/03/30 07:40:17;;;;;;;10.18;2.90;;;;;;;4.91;36.41;98698.00;6016120;23;20410;-67
2022/03/30 07:42:44;;;;;;;8.75;2.78;;;;;;;3.98;37.35;98715.13;6015794;23;20033;-67
2022/03/30 07:45:11;;;;;;;7.45;2.90;;;;;;;3.81;39.59;98708.56;6015805;23;20453;-67
2022/03/30 07:47:37;;;;;;;7.80;2.92;;;;;;;5.95;34.00;98693.69;6065040;23;20054;-67
2022/03/30 07:50:04;;;;;;;7.97;2.33;;;;;;;4.96;35.45;98702.91;6015484;23;20114;-68
2022/03/30 07:52:29;;;;;;;7.25;2.80;;;;;;;5.15;36.97;98705.59;5992461;23;20023;-68
2022/03/30 07:54:55;;;;;;;8.30;2.88;;;;;;;6.94;32.83;98683.19;6039403;23;20118;-69
2022/03/30 07:57:26;;;;;;;9.02;3.03;;;;;;;9.61;30.19;98706.50;5991709;23;20027;-69
2022/03/30 07:59:57;;;;;;;13.93;3.50;;;;;;;10.84;28.25;98710.66;6017565;23;20058;-68
2022/03/30 08:02:24;;;;;;;9.02;3.13;;;;;;;9.34;29.17;98715.78;6039006;23;20374;-71
2022/03/30 08:04:50;;;;;;;7.78;2.25;;;;;;;9.85;28.68;98713.78;5992133;23;20019;-68
2022/03/30 08:07:16;;;;;;;5.43;1.73;;;;;;;6.98;30.07;98708.78;5991658;23;20026;-70
2022/03/30 08:09:43;;;;;;;6.78;2.10;;;;;;;5.61;32.11;98716.63;6015519;23;20037;-69
2022/03/30 08:12:14;;;;;;;7.30;2.42;;;;;;;5.19;34.09;98716.88;6015731;23;20477;-68
2022/03/30 08:14:44;;;;;;;6.88;2.85;;;;;;;7.32;31.09;98726.06;6039978;23;20129;-67
2022/03/30 08:17:10;;;;;;;11.23;3.33;;;;;;;6.92;33.70;98725.50;5992627;23;20517;-68
2022/03/30 08:19:36;;;;;;;9.25;2.60;;;;;;;6.44;34.16;98721.22;6039432;23;20027;-67
2022/03/30 08:24:47;;;;;;;7.63;2.95;;;;;;;5.17;36.03;98721.56;6023165;23;20197;-67
2022/03/30 08:27:15;;;;;;;7.38;2.40;;;;;;;4.40;36.43;98730.25;5992191;23;20437;-68
2022/03/30 08:29:43;;;;;;;7.35;2.65;;;;;;;6.49;32.48;98728.81;6039273;23;20398;-67
2022/03/30 08:32:10;;;;;;;6.53;1.80;;;;;;;4.55;34.66;98729.75;6039338;23;20026;-68
2022/03/30 08:34:36;;;;;;;8.95;1.95;;;;;;;4.41;34.81;98738.13;6015647;23;20055;-71
2022/03/30 08:37:02;;;;;;;8.60;2.17;;;;;;;3.62;37.21;98736.03;5992232;23;20051;-68
2022/03/30 08:39:29;;;;;;;7.05;3.28;;;;;;;4.87;36.37;98722.50;6016220;23;20030;-67
2022/03/30 08:41:56;;;;;;;6.95;2.55;;;;;;;6.82;31.67;98732.75;6016297;23;20038;-68
2022/03/30 08:44:22;;;;;;;7.53;2.50;;;;;;;6.46;31.38;98724.59;6016908;23;20103;-68
2022/03/30 08:46:48;;;;;;;10.50;3.83;;;;;;;9.27;30.27;98720.97;6016953;23;20383;-68
2022/03/30 08:49:15;;;;;;;10.40;3.05;;;;;;;7.00;30.64;98739.00;6015769;23;20027;-69
2022/03/30 08:51:47;;;;;;;8.80;2.58;;;;;;;9.90;27.27;98733.84;6014852;23;20026;-72
2022/03/30 08:54:14;;;;;;;5.85;1.63;;;;;;;9.65;26.68;98740.25;5992322;23;20412;-69
2022/03/30 08:56:41;;;;;;;8.73;1.67;;;;;;;4.89;30.19;98734.75;6038852;23;20525;-68
2022/03/30 08:59:08;;;;;;;9.35;2.05;;;;;;;3.04;34.37;98735.56;6015237;23;20030;-68
2022/03/30 09:01:36;;;;;;;7.80;1.77;;;;;;;2.50;36.49;98741.72;6039266;23;20094;-68
2022/03/30 09:04:04;;;;;;;8.98;1.90;;;;;;;3.35;36.68;98738.34;6015737;23;20082;-68
2022/03/30 09:06:44;;;;;;;8.05;2.08;;;;;;;3.17;36.76;98739.88;6039354;23;20066;-66
2022/03/30 09:09:11;;;;;;;6.57;2.10;;;;;;;3.47;36.90;98729.28;6015248;23;20122;-66
2022/03/30 09:11:40;;;;;;;12.30;2.20;;;;;;;3.63;36.45;98737.72;6064474;23;20349;-68
2022/03/30 09:14:09;;;;;;;8.48;2.17;;;;;;;3.27;37.13;98740.81;6038793;23;20461;-66
2022/03/30 09:16:46;;;;;;;8.40;1.92;;;;;;;2.88;39.47;98735.09;6015081;23;20043;-67
2022/03/30 09:19:14;;;;;;;8.48;1.90;;;;;;;2.88;38.45;98735.94;6015199;23;20027;-66
2022/03/30 09:21:48;;;;;;;9.77;2.25;;;;;;;1.97;39.46;98727.28;6038838;23;20054;-66
2022/03/30 09:24:17;;;;;;;7.95;2.20;;;;;;;2.28;40.38;98752.41;6038885;23;20031;-66
2022/03/30 09:26:43;;;;;;;8.05;2.63;;;;;;;2.15;40.08;98753.34;6015646;23;20351;-67
2022/03/30 09:29:10;;;;;;;9.10;2.78;;;;;;;3.63;39.45;98742.22;5992062;23;20034;-67
2022/03/30 09:31:38;;;;;;;7.68;2.85;;;;;;;2.75;39.73;98758.44;6015479;23;20098;-67
2022/03/30 09:34:06;;;;;;;9.45;2.95;;;;;;;3.17;39.03;98753.22;6039873;23;20468;-69
2022/03/30 09:36:34;;;;;;;12.13;3.42;;;;;;;5.83;36.20;98753.84;5969211;23;20054;-68
2022/03/30 09:39:00;;;;;;;6.97;2.00;;;;;;;3.89;35.81;98749.84;6015258;23;20027;-68
2022/03/30 09:41:26;;;;;;;7.80;3.13;;;;;;;6.17;34.03;98756.91;5991812;23;20097;-69
2022/03/30 09:44:03;;;;;;;7.30;2.53;;;;;;;8.23;29.86;98748.16;6014953;23;20114;-69
2022/03/30 09:46:29;;;;;;;6.30;2.13;;;;;;;9.84;26.42;98745.31;6015370;23;20034;-69
2022/03/30 09:48:56;;;;;;;9.95;2.58;;;;;;;11.09;25.53;98751.13;6015304;23;20027;-69
2022/03/30 09:51:25;;;;;;;11.65;2.90;;;;;;;10.62;24.92;98746.56;5992095;23;20062;-69
2022/03/30 09:53:51;;;;;;;6.00;2.10;;;;;;;9.88;25.09;98746.69;6062712;23;20094;-69
2022/03/30 09:56:22;;;;;;;9.68;2.17;;;;;;;10.15;24.95;98741.91;6038478;23;20030;-69
2022/03/30 09:58:49;;;;;;;8.43;2.25;;;;;;;12.18;24.50;98733.78;6038240;23;20026;-70
2022/03/30 10:01:23;;;;;;;39.28;4.40;;;;;;;11.21;25.75;98733.47;6014844;23;20524;-71
2022/03/30 10:03:53;;;;;;;8.35;2.05;;;;;;;11.46;22.56;98741.44;6014947;23;20079;-70
2022/03/30 10:06:28;;;;;;;9.68;1.77;;;;;;;8.35;27.48;98736.09;5992794;23;20026;-70
2022/03/30 10:08:55;;;;;;;5.70;1.85;;;;;;;8.29;29.28;98747.50;6017697;23;20059;-70
2022/03/30 10:11:23;;;;;;;7.60;2.25;;;;;;;8.93;27.88;98742.66;6017425;23;20115;-70
2022/03/30 10:13:51;;;;;;;7.47;1.98;;;;;;;8.96;26.96;98745.03;6017157;23;20027;-70
2022/03/30 10:16:18;;;;;;;7.10;1.92;;;;;;;7.70;28.82;98736.50;5992827;23;20038;-70
2022/03/30 10:18:45;;;;;;;8.00;2.33;;;;;;;7.77;29.72;98744.78;6016729;23;20031;-68
2022/03/30 10:21:23;;;;;;;7.53;2.00;;;;;;;7.97;28.63;98727.47;6016839;23;20027;-69
2022/03/30 10:24:01;;;;;;;8.25;1.92;;;;;;;6.86;29.83;98747.56;6040393;23;20026;-69
2022/03/30 10:27:03;;;;;;;7.80;2.05;;;;;;;6.52;31.23;98744.66;6039676;23;20062;-68
2022/03/30 10:29:30;;;;;;;9.27;2.20;;;;;;;5.43;32.44;98740.59;6039380;23;20027;-69
2022/03/30 10:32:14;;;;;;;6.55;1.85;;;;;;;5.06;32.64;98743.97;6016375;23;20035;-68
2022/03/30 10:34:59;;;;;;;8.48;1.98;;;;;;;5.39;31.71;98739.19;6064250;23;20573;-69
2022/03/30 10:37:30;;;;;;;7.18;2.28;;;;;;;7.41;28.38;98743.97;6040241;23;20027;-69
2022/03/30 10:40:05;;;;;;;11.93;2.33;;;;;;;6.64;29.12;98743.44;6016328;23;20030;-69
2022/03/30 10:42:46;;;;;;;8.85;1.67;;;;;;;5.26;30.89;98734.09;6063869;23;20029;-69
2022/03/30 10:45:25;;;;;;;8.02;2.10;;;;;;;5.82;31.28;98740.59;6039875;23;20023;-68
2022/03/30 10:48:12;;;;;;;7.60;2.95;;;;;;;7.34;28.75;98741.03;6040412;23;20118;-69
2022/03/30 10:50:47;;;;;;;7.55;2.08;;;;;;;6.47;30.77;98737.03;6040375;23;20031;-69
2022/03/30 10:53:33;;;;;;;15.93;2.20;;;;;;;5.39;31.84;98745.41;6041139;23;20049;-69
2022/03/30 10:56:08;;;;;;;7.75;2.35;;;;;;;4.77;30.68;98722.47;6065246;23;20034;-68
2022/03/30 10:59:00;;;;;;;8.93;2.00;;;;;;;4.37;31.88;98747.41;6065263;23;20077;-69
2022/03/30 11:01:29;;;;;;;6.85;1.80;;;;;;;3.99;32.28;98716.84;5992488;23;20031;-69
2022/03/30 11:04:13;;;;;;;7.63;1.80;;;;;;;3.47;32.87;98737.31;6040268;23;20015;-68
2022/03/30 11:06:40;;;;;;;5.95;1.63;;;;;;;3.63;33.04;98745.75;6063959;23;20109;-68
2022/03/30 11:09:07;;;;;;;7.55;2.00;;;;;;;4.70;31.97;98753.47;5993073;23;20025;-69
2022/03/30 11:11:39;;;;;;;6.78;1.65;;;;;;;3.85;31.00;98727.88;6016370;23;20026;-69
2022/03/30 11:14:34;;;;;;;6.43;1.92;;;;;;;6.50;28.04;98747.47;6018527;23;20094;-69
2022/03/30 11:17:01;;;;;;;5.55;1.58;;;;;;;6.08;26.51;98736.31;6041683;23;20117;-69
2022/03/30 11:19:56;;;;;;;17.98;2.17;;;;;;;5.61;27.34;98748.78;6040306;23;20041;-70
2022/03/30 11:22:22;;;;;;;6.93;1.73;;;;;;;5.88;27.20;98751.56;5982534;23;20038;-70
2022/03/30 11:25:10;;;;;;;6.03;1.73;;;;;;;6.92;25.93;98741.63;6040259;23;20023;-70
2022/03/30 11:27:37;;;;;;;5.88;1.73;;;;;;;7.82;24.65;98749.69;6040857;23;20034;-71
2022/03/30 11:30:24;;;;;;;6.28;2.35;;;;;;;7.72;24.98;98739.03;6016023;23;20342;-70
2022/03/30 11:32:50;;;;;;;8.32;1.60;;;;;;;6.74;27.12;98743.41;6016129;23;20109;-71
2022/03/30 11:35:18;;;;;;;10.15;2.05;;;;;;;4.24;29.27;98746.78;6039922;23;20022;-69
2022/03/30 11:37:46;;;;;;;6.00;1.60;;;;;;;6.15;27.28;98744.63;5970052;23;20067;-68
2022/03/30 11:40:22;;;;;;;6.57;2.03;;;;;;;6.93;27.28;98753.19;6039829;23;20097;-68
2022/03/30 11:42:56;;;;;;;4.93;1.60;;;;;;;7.91;24.85;98752.31;6039987;23;20102;-69
2022/03/30 11:45:25;;;;;;;7.00;1.65;;;;;;;8.16;24.08;98745.25;6015553;23;20023;-71